Time;durP1;ratioP1;P1;durP2;ratioP2;P2;SDS_P1;SDS_P2;PMS_P1;PMS_P2;Temp;Humidity;BMP_temperature;BMP_pressure;BME280_temperature;BME280_humidity;BME280_pressure;Samples;Min_cycle;Max_cycle;Signal;HPM_P1;HPM_P2
2021/12/30 00:00:57;;;;;;;0.30;0.30;;;;;;;;;;6274422;22;20084;-68
2021/12/30 00:03:22;;;;;;;0.00;0.00;;;;;;;;;;6273829;22;19999;-67
2021/12/30 00:05:48;;;;;;;0.30;0.30;;;;;;;;;;6273898;22;20000;-67
2021/12/30 00:08:13;;;;;;;0.00;0.00;;;;;;;;;;6274802;22;20004;-69
2021/12/30 00:10:40;;;;;;;0.00;0.00;;;;;;;;;;6273884;22;20008;-68
2021/12/30 00:13:05;;;;;;;0.00;0.00;;;;;;;;;;6274276;22;20031;-68
2021/12/30 00:15:30;;;;;;;0.00;0.00;;;;;;;;;;6274039;22;20018;-66
2021/12/30 00:17:56;;;;;;;0.00;0.00;;;;;;;;;;6274573;22;20052;-67
2021/12/30 00:20:21;;;;;;;0.00;0.00;;;;;;;;;;6273529;22;20298;-67
2021/12/30 00:22:47;;;;;;;0.00;0.00;;;;;;;;;;6274746;22;20000;-68
2021/12/30 00:25:13;;;;;;;0.10;0.10;;;;;;;;;;6274406;22;20010;-68
2021/12/30 00:27:38;;;;;;;0.00;0.00;;;;;;;;;;6273473;22;20015;-68
2021/12/30 00:30:06;;;;;;;17.73;5.68;;;;;;;;;;6274736;22;20085;-67
2021/12/30 00:32:31;;;;;;;0.00;0.00;;;;;;;;;;6273639;22;19995;-68
2021/12/30 00:34:57;;;;;;;0.00;0.00;;;;;;;;;;6273887;22;19992;-67
2021/12/30 00:37:22;;;;;;;0.00;0.00;;;;;;;;;;6274052;22;20317;-68
2021/12/30 00:39:47;;;;;;;0.00;0.00;;;;;;;;;;6273900;22;20007;-69
2021/12/30 00:42:12;;;;;;;0.00;0.00;;;;;;;;;;6273721;22;20000;-68
2021/12/30 00:44:38;;;;;;;0.00;0.00;;;;;;;;;;6273661;22;20000;-66
2021/12/30 00:47:03;;;;;;;0.00;0.00;;;;;;;;;;6274077;22;20022;-67
2021/12/30 00:49:29;;;;;;;0.10;0.10;;;;;;;;;;6273590;22;20424;-67
2021/12/30 00:51:55;;;;;;;0.00;0.00;;;;;;;;;;6274278;22;20063;-68
2021/12/30 00:54:20;;;;;;;0.22;0.22;;;;;;;;;;6273671;22;20003;-68
2021/12/30 00:56:46;;;;;;;0.15;0.15;;;;;;;;;;6273464;22;20003;-69
2021/12/30 00:59:11;;;;;;;0.00;0.00;;;;;;;;;;6273482;22;20027;-68
2021/12/30 01:01:36;;;;;;;0.00;0.00;;;;;;;;;;6273366;22;19996;-67
2021/12/30 01:04:03;;;;;;;0.00;0.00;;;;;;;;;;6273489;22;20035;-68
2021/12/30 01:06:28;;;;;;;0.03;0.03;;;;;;;;;;6273310;22;20080;-68
2021/12/30 01:08:54;;;;;;;0.00;0.00;;;;;;;;;;6274010;22;20008;-68
2021/12/30 01:11:22;;;;;;;0.00;0.00;;;;;;;;;;6273219;22;20074;-68
2021/12/30 01:13:55;;;;;;;0.03;0.03;;;;;;;;;;6273020;22;20461;-68
2021/12/30 01:16:24;;;;;;;0.00;0.00;;;;;;;;;;6273224;22;20452;-68
2021/12/30 01:21:27;;;;;;;0.00;0.00;;;;;;;;;;6283579;22;20425;-68
2021/12/30 01:23:53;;;;;;;0.00;0.00;;;;;;;;;;6273564;22;20078;-68
2021/12/30 01:26:18;;;;;;;1.02;0.30;;;;;;;;;;6273563;22;20046;-68
2021/12/30 01:28:43;;;;;;;0.00;0.00;;;;;;;;;;6273044;22;20008;-68
2021/12/30 01:31:09;;;;;;;0.90;0.90;;;;;;;;;;6272929;22;20003;-67
2021/12/30 01:33:34;;;;;;;0.00;0.00;;;;;;;;;;6272439;22;20398;-68
2021/12/30 01:36:00;;;;;;;0.00;0.00;;;;;;;;;;6273744;22;19996;-68
2021/12/30 01:38:25;;;;;;;0.00;0.00;;;;;;;;;;6273279;22;20008;-67
2021/12/30 01:40:53;;;;;;;0.00;0.00;;;;;;;;;;6273618;22;20004;-67
2021/12/30 01:43:18;;;;;;;0.10;0.10;;;;;;;;;;6273401;22;20006;-67
2021/12/30 01:45:44;;;;;;;0.20;0.20;;;;;;;;;;6273019;22;20413;-67
2021/12/30 01:48:10;;;;;;;0.00;0.00;;;;;;;;;;6273482;22;20375;-67
2021/12/30 01:50:35;;;;;;;0.00;0.00;;;;;;;;;;6272506;22;20042;-67
2021/12/30 01:53:00;;;;;;;0.00;0.00;;;;;;;;;;6273439;22;20027;-67
2021/12/30 01:55:26;;;;;;;0.00;0.00;;;;;;;;;;6273044;22;19992;-67
2021/12/30 01:57:51;;;;;;;0.22;0.22;;;;;;;;;;6273196;22;20365;-67
2021/12/30 02:00:19;;;;;;;0.05;0.05;;;;;;;;;;6272865;22;20006;-68
2021/12/30 02:02:45;;;;;;;0.00;0.00;;;;;;;;;;6272760;22;20011;-67
2021/12/30 02:05:10;;;;;;;0.00;0.00;;;;;;;;;;6273496;22;20003;-67
2021/12/30 02:07:35;;;;;;;0.00;0.00;;;;;;;;;;6272902;22;19999;-67
2021/12/30 02:10:02;;;;;;;0.00;0.00;;;;;;;;;;6272849;22;20014;-67
2021/12/30 02:12:30;;;;;;;0.00;0.00;;;;;;;;;;6272471;22;20038;-68
2021/12/30 02:14:55;;;;;;;0.03;0.03;;;;;;;;;;6273221;22;20049;-67
2021/12/30 02:17:21;;;;;;;0.00;0.00;;;;;;;;;;6273119;22;20401;-67
2021/12/30 02:19:46;;;;;;;0.00;0.00;;;;;;;;;;6272101;22;20078;-68
2021/12/30 02:22:11;;;;;;;0.00;0.00;;;;;;;;;;6273002;22;19992;-67
2021/12/30 02:24:43;;;;;;;0.00;0.00;;;;;;;;;;6272599;22;19992;-67
2021/12/30 02:27:08;;;;;;;0.00;0.00;;;;;;;;;;6272226;22;20465;-68
2021/12/30 02:29:34;;;;;;;0.00;0.00;;;;;;;;;;6271915;22;19996;-67
2021/12/30 02:32:00;;;;;;;0.00;0.00;;;;;;;;;;6272978;22;20053;-66
2021/12/30 02:34:25;;;;;;;0.00;0.00;;;;;;;;;;6272321;22;20372;-67
2021/12/30 02:36:50;;;;;;;0.00;0.00;;;;;;;;;;6272756;22;20419;-68
2021/12/30 02:39:18;;;;;;;0.00;0.00;;;;;;;;;;6272670;22;20003;-68
2021/12/30 02:41:43;;;;;;;0.00;0.00;;;;;;;;;;6272252;22;19996;-67
2021/12/30 02:44:08;;;;;;;0.00;0.00;;;;;;;;;;6272800;22;20003;-67
2021/12/30 02:46:35;;;;;;;0.00;0.00;;;;;;;;;;6272118;22;20003;-67
2021/12/30 02:49:01;;;;;;;0.00;0.00;;;;;;;;;;6272827;22;20003;-67
2021/12/30 02:51:26;;;;;;;0.00;0.00;;;;;;;;;;6271948;22;20000;-67
2021/12/30 02:53:52;;;;;;;0.00;0.00;;;;;;;;;;6272747;22;20421;-67
2021/12/30 02:56:18;;;;;;;0.22;0.22;;;;;;;;;;6272631;22;20378;-67
2021/12/30 02:58:44;;;;;;;0.00;0.00;;;;;;;;;;6271146;22;20157;-67
2021/12/30 03:01:14;;;;;;;0.00;0.00;;;;;;;;;;6272413;22;19996;-67
2021/12/30 03:03:40;;;;;;;0.00;0.00;;;;;;;;;;6271450;22;20016;-67
2021/12/30 03:06:06;;;;;;;0.00;0.00;;;;;;;;;;6272397;22;20009;-67
2021/12/30 03:08:32;;;;;;;0.00;0.00;;;;;;;;;;6271934;22;20386;-67
2021/12/30 03:10:58;;;;;;;0.00;0.00;;;;;;;;;;6272522;22;20019;-67
2021/12/30 03:13:31;;;;;;;0.00;0.00;;;;;;;;;;6272374;22;19999;-72
2021/12/30 03:15:58;;;;;;;0.00;0.00;;;;;;;;;;6272433;22;20018;-67
2021/12/30 03:18:23;;;;;;;0.52;0.52;;;;;;;;;;6272211;22;19995;-66
2021/12/30 03:20:48;;;;;;;0.00;0.00;;;;;;;;;;6271619;22;20004;-67
2021/12/30 03:23:13;;;;;;;0.00;0.00;;;;;;;;;;6271824;22;19999;-67
2021/12/30 03:25:39;;;;;;;0.00;0.00;;;;;;;;;;6271122;22;20012;-66
2021/12/30 03:28:05;;;;;;;1.00;0.30;;;;;;;;;;6271435;22;20364;-67
2021/12/30 03:30:30;;;;;;;0.00;0.00;;;;;;;;;;6271625;22;20007;-67
2021/12/30 03:32:55;;;;;;;0.00;0.00;;;;;;;;;;6271965;22;20000;-67
2021/12/30 03:35:21;;;;;;;0.00;0.00;;;;;;;;;;6272306;22;20000;-67
2021/12/30 03:37:47;;;;;;;0.00;0.00;;;;;;;;;;6271274;22;20484;-67
2021/12/30 03:40:14;;;;;;;0.00;0.00;;;;;;;;;;6271824;22;20000;-66
2021/12/30 03:42:39;;;;;;;0.00;0.00;;;;;;;;;;6271294;22;20003;-66
2021/12/30 03:45:07;;;;;;;0.00;0.00;;;;;;;;;;6245160;22;20002;-67
2021/12/30 03:47:35;;;;;;;0.00;0.00;;;;;;;;;;6272112;22;20429;-67
2021/12/30 03:50:00;;;;;;;0.00;0.00;;;;;;;;;;6271581;22;20437;-67
2021/12/30 03:52:30;;;;;;;0.00;0.00;;;;;;;;;;6272106;22;20011;-67
2021/12/30 03:54:55;;;;;;;0.00;0.00;;;;;;;;;;6271785;22;20110;-67
2021/12/30 03:57:21;;;;;;;0.00;0.00;;;;;;;;;;6271785;22;20370;-67
2021/12/30 03:59:46;;;;;;;0.00;0.00;;;;;;;;;;6271897;22;20814;-67
2021/12/30 04:02:11;;;;;;;0.00;0.00;;;;;;;;;;6272058;22;20325;-67
2021/12/30 04:04:36;;;;;;;0.00;0.00;;;;;;;;;;6271589;22;19992;-67
2021/12/30 04:07:02;;;;;;;0.00;0.00;;;;;;;;;;6271937;22;20483;-67
2021/12/30 04:09:27;;;;;;;0.00;0.00;;;;;;;;;;6271620;22;20011;-67
2021/12/30 04:11:52;;;;;;;0.00;0.00;;;;;;;;;;6271922;22;20017;-68
2021/12/30 04:14:18;;;;;;;0.00;0.00;;;;;;;;;;6271585;22;20010;-67
2021/12/30 04:16:43;;;;;;;0.00;0.00;;;;;;;;;;6271527;22;20062;-67
2021/12/30 04:19:08;;;;;;;0.00;0.00;;;;;;;;;;6272115;22;20070;-67
2021/12/30 04:21:33;;;;;;;0.00;0.00;;;;;;;;;;6271578;22;19996;-67
2021/12/30 04:23:59;;;;;;;0.00;0.00;;;;;;;;;;6271786;22;20076;-67
2021/12/30 04:26:24;;;;;;;0.00;0.00;;;;;;;;;;6271929;22;20125;-67
2021/12/30 04:28:50;;;;;;;0.00;0.00;;;;;;;;;;6271174;22;20015;-67
2021/12/30 04:31:15;;;;;;;0.00;0.00;;;;;;;;;;6272142;22;20006;-67
2021/12/30 04:33:40;;;;;;;0.00;0.00;;;;;;;;;;6272418;22;20038;-67
2021/12/30 04:36:06;;;;;;;0.00;0.00;;;;;;;;;;6273602;22;20665;-67
2021/12/30 04:38:32;;;;;;;0.00;0.00;;;;;;;;;;6273550;22;20050;-67
2021/12/30 04:40:58;;;;;;;0.00;0.00;;;;;;;;;;6246797;22;19992;-67
2021/12/30 04:43:23;;;;;;;0.00;0.00;;;;;;;;;;6273553;22;20492;-67
2021/12/30 04:45:49;;;;;;;0.00;0.00;;;;;;;;;;6273262;22;20023;-68
2021/12/30 04:48:15;;;;;;;0.00;0.00;;;;;;;;;;6274025;22;20049;-69
2021/12/30 04:50:40;;;;;;;0.00;0.00;;;;;;;;;;6273371;22;19999;-67
2021/12/30 04:53:05;;;;;;;0.00;0.00;;;;;;;;;;6273183;22;20049;-67
2021/12/30 04:55:31;;;;;;;0.00;0.00;;;;;;;;;;6273201;22;20414;-68
2021/12/30 04:57:56;;;;;;;0.00;0.00;;;;;;;;;;6273416;22;19992;-67
2021/12/30 05:00:21;;;;;;;0.00;0.00;;;;;;;;;;6273522;22;19992;-67
2021/12/30 05:03:21;;;;;;;0.00;0.00;;;;;;;;;;6273203;22;20132;-68
2021/12/30 05:05:39;;;;;;;0.00;0.00;;;;;;;;;;6268674;22;20004;-67
2021/12/30 05:08:04;;;;;;;0.00;0.00;;;;;;;;;;6273953;22;20406;-67
2021/12/30 05:10:29;;;;;;;0.00;0.00;;;;;;;;;;6273047;22;20005;-66
2021/12/30 05:12:55;;;;;;;0.00;0.00;;;;;;;;;;6272929;22;20007;-67
2021/12/30 05:15:20;;;;;;;0.00;0.00;;;;;;;;;;6273599;22;20000;-67
2021/12/30 05:17:45;;;;;;;0.30;0.30;;;;;;;;;;6273047;22;19999;-67
2021/12/30 05:20:12;;;;;;;0.00;0.00;;;;;;;;;;6273475;22;20459;-67
2021/12/30 05:22:38;;;;;;;0.00;0.00;;;;;;;;;;6272318;22;19996;-67
2021/12/30 05:25:03;;;;;;;0.00;0.00;;;;;;;;;;6273516;22;19999;-67
2021/12/30 05:27:28;;;;;;;0.00;0.00;;;;;;;;;;6272752;22;20034;-67
2021/12/30 05:29:53;;;;;;;0.00;0.00;;;;;;;;;;6272791;22;20027;-67
2021/12/30 05:32:19;;;;;;;0.00;0.00;;;;;;;;;;6273129;22;20046;-68
2021/12/30 05:34:44;;;;;;;0.00;0.00;;;;;;;;;;6272834;22;20000;-67
2021/12/30 05:37:09;;;;;;;0.00;0.00;;;;;;;;;;6273634;22;19999;-67
2021/12/30 05:39:39;;;;;;;0.00;0.00;;;;;;;;;;6273166;22;19999;-67
2021/12/30 05:42:05;;;;;;;0.00;0.00;;;;;;;;;;6273384;22;20003;-67
2021/12/30 05:44:30;;;;;;;0.95;0.95;;;;;;;;;;6272627;22;20004;-67
2021/12/30 05:46:55;;;;;;;0.00;0.00;;;;;;;;;;6272665;22;20004;-67
2021/12/30 05:49:20;;;;;;;0.00;0.00;;;;;;;;;;6272936;22;20000;-67
2021/12/30 05:51:45;;;;;;;0.00;0.00;;;;;;;;;;6272221;22;20456;-67
2021/12/30 05:54:11;;;;;;;0.00;0.00;;;;;;;;;;6272917;22;20026;-66
2021/12/30 05:56:36;;;;;;;0.17;0.10;;;;;;;;;;6272204;22;19992;-67
2021/12/30 05:59:01;;;;;;;0.00;0.00;;;;;;;;;;6272642;22;20003;-67
2021/12/30 06:01:26;;;;;;;0.00;0.00;;;;;;;;;;6273145;22;20000;-67
2021/12/30 06:03:51;;;;;;;0.00;0.00;;;;;;;;;;6272447;22;20016;-67
2021/12/30 06:06:17;;;;;;;0.00;0.00;;;;;;;;;;6272895;22;20000;-67
2021/12/30 06:08:42;;;;;;;0.00;0.00;;;;;;;;;;6272107;22;20012;-67
2021/12/30 06:11:07;;;;;;;0.00;0.00;;;;;;;;;;6272866;22;20329;-67
2021/12/30 06:13:32;;;;;;;0.00;0.00;;;;;;;;;;6271754;22;19995;-68
2021/12/30 06:15:58;;;;;;;0.00;0.00;;;;;;;;;;6272999;22;20074;-68
2021/12/30 06:18:23;;;;;;;0.00;0.00;;;;;;;;;;6272948;22;20019;-68
2021/12/30 06:20:48;;;;;;;0.00;0.00;;;;;;;;;;6271964;22;19996;-68
2021/12/30 06:23:13;;;;;;;0.00;0.00;;;;;;;;;;6272975;22;20080;-68
2021/12/30 06:25:39;;;;;;;0.28;0.28;;;;;;;;;;6272262;22;20507;-68
2021/12/30 06:28:04;;;;;;;0.00;0.00;;;;;;;;;;6272147;22;20039;-68
2021/12/30 06:30:29;;;;;;;0.00;0.00;;;;;;;;;;6272544;22;20083;-68
2021/12/30 06:32:57;;;;;;;0.00;0.00;;;;;;;;;;6271978;22;20071;-68
2021/12/30 06:35:23;;;;;;;0.00;0.00;;;;;;;;;;6272886;22;19992;-68
2021/12/30 06:37:48;;;;;;;0.00;0.00;;;;;;;;;;6272394;22;20006;-69
2021/12/30 06:40:14;;;;;;;1.75;1.13;;;;;;;;;;6272858;22;20000;-68
2021/12/30 06:42:41;;;;;;;0.00;0.00;;;;;;;;;;6271939;22;20421;-69
2021/12/30 06:45:06;;;;;;;0.00;0.00;;;;;;;;;;6272447;22;20000;-68
2021/12/30 06:47:31;;;;;;;0.00;0.00;;;;;;;;;;6272287;22;20010;-68
2021/12/30 06:50:01;;;;;;;0.00;0.00;;;;;;;;;;6271629;22;20082;-68
2021/12/30 06:52:26;;;;;;;0.00;0.00;;;;;;;;;;6272610;22;20049;-68
2021/12/30 06:54:51;;;;;;;0.00;0.00;;;;;;;;;;6271989;22;20482;-68
2021/12/30 06:57:17;;;;;;;0.00;0.00;;;;;;;;;;6272010;22;20003;-68
2021/12/30 06:59:42;;;;;;;0.00;0.00;;;;;;;;;;6271675;22;20003;-68
2021/12/30 07:02:07;;;;;;;0.00;0.00;;;;;;;;;;6271510;22;20751;-68
2021/12/30 07:04:33;;;;;;;0.00;0.00;;;;;;;;;;6272094;22;20024;-67
2021/12/30 07:06:58;;;;;;;0.00;0.00;;;;;;;;;;6271921;22;20324;-68
2021/12/30 07:09:24;;;;;;;0.00;0.00;;;;;;;;;;6272640;22;20070;-68
2021/12/30 07:11:49;;;;;;;0.00;0.00;;;;;;;;;;6271776;22;19996;-67
2021/12/30 07:14:18;;;;;;;0.00;0.00;;;;;;;;;;6271741;22;20000;-68
2021/12/30 07:16:43;;;;;;;0.00;0.00;;;;;;;;;;6271288;22;20542;-68
2021/12/30 07:19:09;;;;;;;0.00;0.00;;;;;;;;;;6272103;22;20023;-67
2021/12/30 07:21:34;;;;;;;0.00;0.00;;;;;;;;;;6272096;22;20000;-67
2021/12/30 07:23:59;;;;;;;0.00;0.00;;;;;;;;;;6271667;22;20083;-68
2021/12/30 07:26:24;;;;;;;0.00;0.00;;;;;;;;;;6239831;23;20768;-68
2021/12/30 07:28:49;;;;;;;0.00;0.00;;;;;;;;;;6240934;23;20004;-68
2021/12/30 07:31:14;;;;;;;0.00;0.00;;;;;;;;;;6241733;23;20004;-68
2021/12/30 07:33:40;;;;;;;0.00;0.00;;;;;;;;;;6241007;23;20004;-68
2021/12/30 07:36:05;;;;;;;0.00;0.00;;;;;;;;;;6241647;23;20418;-68
2021/12/30 07:38:30;;;;;;;0.00;0.00;;;;;;;;;;6241078;23;20004;-67
2021/12/30 07:40:55;;;;;;;0.00;0.00;;;;;;;;;;6241192;23;20034;-68
2021/12/30 07:43:21;;;;;;;0.00;0.00;;;;;;;;;;6241058;23;20069;-68
2021/12/30 07:45:46;;;;;;;0.00;0.00;;;;;;;;;;6240958;23;20004;-69
2021/12/30 07:48:11;;;;;;;0.00;0.00;;;;;;;;;;6241505;23;20004;-68
2021/12/30 07:50:36;;;;;;;0.00;0.00;;;;;;;;;;6241128;23;20402;-68
2021/12/30 07:53:02;;;;;;;0.00;0.00;;;;;;;;;;6241324;23;20030;-67
2021/12/30 07:55:27;;;;;;;0.00;0.00;;;;;;;;;;6240819;22;20437;-67
2021/12/30 07:57:57;;;;;;;0.00;0.00;;;;;;;;;;6240834;23;20007;-67
2021/12/30 08:00:23;;;;;;;0.00;0.00;;;;;;;;;;6241355;22;19996;-66
2021/12/30 08:02:48;;;;;;;0.00;0.00;;;;;;;;;;6241039;23;20433;-67
2021/12/30 08:05:15;;;;;;;0.00;0.00;;;;;;;;;;6241493;23;19996;-67
2021/12/30 08:07:41;;;;;;;0.00;0.00;;;;;;;;;;6241513;22;20704;-67
2021/12/30 08:10:12;;;;;;;0.00;0.00;;;;;;;;;;6243634;22;20008;-66
2021/12/30 08:12:38;;;;;;;0.00;0.00;;;;;;;;;;6242593;22;20004;-67
2021/12/30 08:15:04;;;;;;;0.00;0.00;;;;;;;;;;6242362;22;20004;-67
2021/12/30 08:17:29;;;;;;;0.00;0.00;;;;;;;;;;6243431;22;20003;-69
2021/12/30 08:19:54;;;;;;;0.00;0.00;;;;;;;;;;6242794;23;20353;-67
2021/12/30 08:22:19;;;;;;;0.00;0.00;;;;;;;;;;6243498;23;19996;-67
2021/12/30 08:24:45;;;;;;;1.88;0.85;;;;;;;;;;6242904;23;20004;-67
2021/12/30 08:27:12;;;;;;;0.00;0.00;;;;;;;;;;6267353;22;20497;-68
2021/12/30 08:29:37;;;;;;;0.00;0.00;;;;;;;;;;6246156;22;20002;-68
2021/12/30 08:32:03;;;;;;;0.00;0.00;;;;;;;;;;6273569;22;19995;-68
2021/12/30 08:34:28;;;;;;;0.00;0.00;;;;;;;;;;6273833;22;20010;-68
2021/12/30 08:36:54;;;;;;;0.00;0.00;;;;;;;;;;6273415;22;20438;-68
2021/12/30 08:39:19;;;;;;;0.00;0.00;;;;;;;;;;6273904;22;20023;-68
2021/12/30 08:41:44;;;;;;;0.00;0.00;;;;;;;;;;6273299;22;20077;-68
2021/12/30 08:44:09;;;;;;;0.00;0.00;;;;;;;;;;6272509;22;20003;-68
2021/12/30 08:46:34;;;;;;;0.08;0.08;;;;;;;;;;6273706;22;20010;-68
2021/12/30 08:49:00;;;;;;;0.00;0.00;;;;;;;;;;6272868;22;20004;-68
2021/12/30 08:51:25;;;;;;;0.00;0.00;;;;;;;;;;6273724;22;20004;-68
2021/12/30 08:53:50;;;;;;;0.00;0.00;;;;;;;;;;6272990;22;20007;-69
2021/12/30 08:56:17;;;;;;;0.00;0.00;;;;;;;;;;6273610;22;20302;-68
2021/12/30 08:58:42;;;;;;;0.00;0.00;;;;;;;;;;6273120;22;20436;-67
2021/12/30 09:01:07;;;;;;;0.00;0.00;;;;;;;;;;6273675;22;19988;-67
2021/12/30 09:03:33;;;;;;;0.00;0.00;;;;;;;;;;6273291;22;20003;-68
2021/12/30 09:05:58;;;;;;;0.52;0.52;;;;;;;;;;6272607;22;20004;-67
2021/12/30 09:08:23;;;;;;;0.00;0.00;;;;;;;;;;6273441;22;20064;-68
2021/12/30 09:10:50;;;;;;;0.15;0.15;;;;;;;;;;6272836;22;20003;-68
2021/12/30 09:13:16;;;;;;;0.00;0.00;;;;;;;;;;6272212;22;20054;-68
2021/12/30 09:15:41;;;;;;;0.00;0.00;;;;;;;;;;6272981;22;20026;-67
2021/12/30 09:18:07;;;;;;;0.00;0.00;;;;;;;;;;6273385;22;19999;-67
2021/12/30 09:20:33;;;;;;;0.00;0.00;;;;;;;;;;6272715;22;20046;-68
2021/12/30 09:22:59;;;;;;;0.00;0.00;;;;;;;;;;6272983;22;20071;-67
2021/12/30 09:25:25;;;;;;;0.47;0.15;;;;;;;;;;6272744;22;20023;-67
2021/12/30 09:27:51;;;;;;;0.00;0.00;;;;;;;;;;6272816;22;20106;-67
2021/12/30 09:30:17;;;;;;;0.00;0.00;;;;;;;;;;6273106;22;20007;-68
2021/12/30 09:32:44;;;;;;;0.00;0.00;;;;;;;;;;6272710;22;20000;-68
2021/12/30 09:35:10;;;;;;;0.00;0.00;;;;;;;;;;6273130;22;20124;-67
2021/12/30 09:37:35;;;;;;;0.00;0.00;;;;;;;;;;6273487;22;19996;-67
2021/12/30 09:40:01;;;;;;;0.20;0.10;;;;;;;;;;6272901;22;20000;-67
2021/12/30 09:42:27;;;;;;;0.00;0.00;;;;;;;;;;6272264;22;19999;-67
2021/12/30 09:44:53;;;;;;;0.00;0.00;;;;;;;;;;6272213;22;20030;-66
2021/12/30 09:47:18;;;;;;;0.00;0.00;;;;;;;;;;6221105;22;20004;-67
2021/12/30 09:49:45;;;;;;;0.00;0.00;;;;;;;;;;6272816;22;20067;-67
2021/12/30 09:52:11;;;;;;;0.00;0.00;;;;;;;;;;6272669;22;20099;-67
2021/12/30 09:54:36;;;;;;;0.00;0.00;;;;;;;;;;6273030;22;20456;-68
2021/12/30 09:57:01;;;;;;;0.00;0.00;;;;;;;;;;6272668;22;20004;-68
2021/12/30 09:59:27;;;;;;;0.00;0.00;;;;;;;;;;6272508;22;19995;-68
2021/12/30 10:01:52;;;;;;;0.00;0.00;;;;;;;;;;6245403;22;19991;-67
2021/12/30 10:04:17;;;;;;;0.00;0.00;;;;;;;;;;6272819;22;20004;-67
2021/12/30 10:06:44;;;;;;;0.52;0.13;;;;;;;;;;6272099;22;20099;-68
2021/12/30 10:09:12;;;;;;;1.00;0.80;;;;;;;;;;6272385;22;20004;-69
2021/12/30 10:11:47;;;;;;;0.43;0.43;;;;;;;;;;6272736;22;19995;-68
2021/12/30 10:14:24;;;;;;;0.00;0.00;;;;;;;;;;6272177;22;20317;-68
2021/12/30 10:16:49;;;;;;;0.00;0.00;;;;;;;;;;6271870;22;20007;-68
2021/12/30 10:19:14;;;;;;;0.00;0.00;;;;;;;;;;6272868;22;19999;-68
2021/12/30 10:21:40;;;;;;;0.05;0.00;;;;;;;;;;6272855;22;20015;-68
2021/12/30 10:24:10;;;;;;;0.00;0.00;;;;;;;;;;6272579;22;20050;-68
2021/12/30 10:26:47;;;;;;;0.15;0.05;;;;;;;;;;6272332;22;20020;-67
2021/12/30 10:29:13;;;;;;;0.00;0.00;;;;;;;;;;6272450;22;20050;-68
2021/12/30 10:31:39;;;;;;;0.10;0.10;;;;;;;;;;6272486;22;19999;-68
2021/12/30 10:34:06;;;;;;;0.00;0.00;;;;;;;;;;6271876;22;20024;-68
2021/12/30 10:36:31;;;;;;;0.00;0.00;;;;;;;;;;6272148;22;20000;-68
2021/12/30 10:39:14;;;;;;;0.10;0.10;;;;;;;;;;6271710;22;20076;-69
2021/12/30 10:41:39;;;;;;;0.00;0.00;;;;;;;;;;6272549;22;20000;-68
2021/12/30 10:44:05;;;;;;;0.00;0.00;;;;;;;;;;6271575;22;20402;-68
2021/12/30 10:46:30;;;;;;;0.00;0.00;;;;;;;;;;6272488;22;20628;-68
2021/12/30 10:49:05;;;;;;;0.00;0.00;;;;;;;;;;6271891;22;19999;-68
2021/12/30 10:51:38;;;;;;;0.00;0.00;;;;;;;;;;6272473;22;20000;-68
2021/12/30 10:54:13;;;;;;;0.00;0.00;;;;;;;;;;6271917;22;20027;-68
2021/12/30 10:56:58;;;;;;;0.65;0.65;;;;;;;;;;6272317;22;20441;-68
2021/12/30 10:59:26;;;;;;;0.00;0.00;;;;;;;;;;6245032;22;19991;-67
2021/12/30 11:01:57;;;;;;;0.00;0.00;;;;;;;;;;6271822;22;20021;-68
2021/12/30 11:04:31;;;;;;;0.00;0.00;;;;;;;;;;6272703;22;19996;-67
2021/12/30 11:06:56;;;;;;;0.00;0.00;;;;;;;;;;6271346;22;20014;-67
2021/12/30 11:09:21;;;;;;;0.00;0.00;;;;;;;;;;6271694;22;20008;-68
2021/12/30 11:11:56;;;;;;;0.00;0.00;;;;;;;;;;6271620;22;20003;-68
2021/12/30 11:14:22;;;;;;;0.00;0.00;;;;;;;;;;6272248;22;20000;-68
2021/12/30 11:16:52;;;;;;;0.63;0.63;;;;;;;;;;6271724;22;19992;-67
2021/12/30 11:19:17;;;;;;;4.18;1.98;;;;;;;;;;6272281;22;19991;-67
2021/12/30 11:21:44;;;;;;;0.00;0.00;;;;;;;;;;6272465;22;20089;-68
2021/12/30 11:24:10;;;;;;;0.00;0.00;;;;;;;;;;6271578;22;19995;-68
2021/12/30 11:26:35;;;;;;;0.00;0.00;;;;;;;;;;6271660;22;20019;-67
2021/12/30 11:29:01;;;;;;;0.10;0.10;;;;;;;;;;6270996;22;20302;-67
2021/12/30 11:31:27;;;;;;;0.00;0.00;;;;;;;;;;6272291;22;19996;-68
2021/12/30 11:33:53;;;;;;;0.00;0.00;;;;;;;;;;6271706;22;20000;-67
2021/12/30 11:36:18;;;;;;;0.00;0.00;;;;;;;;;;6271079;22;20002;-68
2021/12/30 11:38:43;;;;;;;2.15;2.15;;;;;;;;;;6272235;22;20317;-67
2021/12/30 11:41:15;;;;;;;0.00;0.00;;;;;;;;;;6271799;22;20334;-67
2021/12/30 11:43:42;;;;;;;0.00;0.00;;;;;;;;;;6273912;22;20684;-68
2021/12/30 11:46:07;;;;;;;0.00;0.00;;;;;;;;;;6274016;22;20006;-68
2021/12/30 11:48:38;;;;;;;0.00;0.00;;;;;;;;;;6275540;22;20027;-68
2021/12/30 11:51:03;;;;;;;0.00;0.00;;;;;;;;;;6275004;22;20000;-68
2021/12/30 11:53:28;;;;;;;0.00;0.00;;;;;;;;;;6275269;22;20078;-68
2021/12/30 11:55:56;;;;;;;0.00;0.00;;;;;;;;;;6275098;22;19996;-68
2021/12/30 11:58:27;;;;;;;0.00;0.00;;;;;;;;;;6275636;22;20070;-68
2021/12/30 12:00:53;;;;;;;0.00;0.00;;;;;;;;;;6274122;22;20295;-68
2021/12/30 12:03:27;;;;;;;0.00;0.00;;;;;;;;;;6274981;22;20006;-68
2021/12/30 12:05:53;;;;;;;1.35;0.98;;;;;;;;;;6273370;22;20003;-68
2021/12/30 12:08:18;;;;;;;0.00;0.00;;;;;;;;;;6275181;22;20026;-68
2021/12/30 12:11:03;;;;;;;0.00;0.00;;;;;;;;;;6275435;22;20460;-67
2021/12/30 12:13:36;;;;;;;0.20;0.20;;;;;;;;;;6274374;22;20374;-67
2021/12/30 12:16:02;;;;;;;0.00;0.00;;;;;;;;;;6274294;22;20057;-68
2021/12/30 12:18:29;;;;;;;0.00;0.00;;;;;;;;;;6274173;22;20348;-67
2021/12/30 12:20:55;;;;;;;0.57;0.57;;;;;;;;;;6273659;22;19992;-67
2021/12/30 12:23:37;;;;;;;0.00;0.00;;;;;;;;;;6274896;22;20007;-67
2021/12/30 12:26:07;;;;;;;0.00;0.00;;;;;;;;;;6274370;22;20046;-67
2021/12/30 12:28:32;;;;;;;0.00;0.00;;;;;;;;;;6275386;22;20432;-67
2021/12/30 12:30:57;;;;;;;0.00;0.00;;;;;;;;;;6274346;22;20074;-67
2021/12/30 12:33:32;;;;;;;0.00;0.00;;;;;;;;;;6274264;22;20049;-68
2021/12/30 12:35:58;;;;;;;0.00;0.00;;;;;;;;;;6274701;22;19995;-67
2021/12/30 12:38:35;;;;;;;0.00;0.00;;;;;;;;;;6274643;22;20011;-67
2021/12/30 12:41:02;;;;;;;0.00;0.00;;;;;;;;;;6273833;22;20362;-66
2021/12/30 12:43:28;;;;;;;0.00;0.00;;;;;;;;;;6275073;22;20101;-68
2021/12/30 12:45:55;;;;;;;0.00;0.00;;;;;;;;;;6273858;22;20074;-68
2021/12/30 12:48:22;;;;;;;0.47;0.47;;;;;;;;;;6275294;22;20000;-69
2021/12/30 12:51:17;;;;;;;0.00;0.00;;;;;;;;;;6274184;22;20058;-68
2021/12/30 12:53:43;;;;;;;0.00;0.00;;;;;;;;;;6241051;22;19999;-68
2021/12/30 12:56:14;;;;;;;0.00;0.00;;;;;;;;;;6272056;22;20377;-69
2021/12/30 12:58:41;;;;;;;0.00;0.00;;;;;;;;;;6272292;22;20041;-69
2021/12/30 13:01:07;;;;;;;0.00;0.00;;;;;;;;;;6272624;22;19995;-68
2021/12/30 13:03:35;;;;;;;0.00;0.00;;;;;;;;;;6272730;22;20011;-68
2021/12/30 13:06:10;;;;;;;0.00;0.00;;;;;;;;;;6272851;22;20690;-68
2021/12/30 13:08:37;;;;;;;0.00;0.00;;;;;;;;;;6273066;22;20015;-69
2021/12/30 13:11:04;;;;;;;0.10;0.10;;;;;;;;;;6272826;22;19996;-68
2021/12/30 13:13:34;;;;;;;0.00;0.00;;;;;;;;;;6272939;22;20082;-68
2021/12/30 13:16:00;;;;;;;0.00;0.00;;;;;;;;;;6272667;22;19995;-69
2021/12/30 13:18:26;;;;;;;0.00;0.00;;;;;;;;;;6273579;22;20075;-69
2021/12/30 13:20:52;;;;;;;0.00;0.00;;;;;;;;;;6273015;22;20027;-69
2021/12/30 13:23:24;;;;;;;0.00;0.00;;;;;;;;;;6273513;22;20430;-69
2021/12/30 13:26:07;;;;;;;0.00;0.00;;;;;;;;;;6273274;22;20019;-69
2021/12/30 13:28:43;;;;;;;0.00;0.00;;;;;;;;;;6272899;22;20000;-68
2021/12/30 13:31:10;;;;;;;0.00;0.00;;;;;;;;;;6270411;22;20027;-69
2021/12/30 13:33:35;;;;;;;0.00;0.00;;;;;;;;;;6271082;22;20444;-68
2021/12/30 13:36:16;;;;;;;0.00;0.00;;;;;;;;;;6270894;22;19999;-69
2021/12/30 13:38:41;;;;;;;0.00;0.00;;;;;;;;;;6272149;22;20447;-69
2021/12/30 13:41:14;;;;;;;0.00;0.00;;;;;;;;;;6271531;22;20011;-69
2021/12/30 13:43:40;;;;;;;0.00;0.00;;;;;;;;;;6271863;22;20329;-69
2021/12/30 13:46:05;;;;;;;0.20;0.20;;;;;;;;;;6271381;22;20006;-69
2021/12/30 13:48:34;;;;;;;0.00;0.00;;;;;;;;;;6271886;22;20409;-69
2021/12/30 13:50:59;;;;;;;0.00;0.00;;;;;;;;;;6271559;22;20146;-69
2021/12/30 13:53:25;;;;;;;0.00;0.00;;;;;;;;;;6271810;22;20434;-69
2021/12/30 13:55:55;;;;;;;0.00;0.00;;;;;;;;;;6271387;22;20004;-69
2021/12/30 13:58:22;;;;;;;4.78;0.47;;;;;;;;;;6271641;22;20049;-69
2021/12/30 14:00:48;;;;;;;0.00;0.00;;;;;;;;;;6243698;22;20002;-69
2021/12/30 14:03:20;;;;;;;0.00;0.00;;;;;;;;;;6270738;22;19995;-70
2021/12/30 14:05:45;;;;;;;0.00;0.00;;;;;;;;;;6271416;22;20093;-69
2021/12/30 14:08:11;;;;;;;0.00;0.00;;;;;;;;;;6270708;22;20434;-68
2021/12/30 14:10:44;;;;;;;0.00;0.00;;;;;;;;;;6271105;22;20003;-69
2021/12/30 14:13:10;;;;;;;0.20;0.20;;;;;;;;;;6270206;22;19999;-69
2021/12/30 14:15:35;;;;;;;0.00;0.00;;;;;;;;;;6270892;22;19999;-69
2021/12/30 14:18:05;;;;;;;0.00;0.00;;;;;;;;;;6270501;22;19991;-68
2021/12/30 14:20:30;;;;;;;0.00;0.00;;;;;;;;;;6271433;22;20065;-69
2021/12/30 14:22:56;;;;;;;0.00;0.00;;;;;;;;;;6270789;22;20004;-69
2021/12/30 14:25:40;;;;;;;0.00;0.00;;;;;;;;;;6270720;22;20010;-69
2021/12/30 14:28:23;;;;;;;0.00;0.00;;;;;;;;;;6243574;22;20481;-68
2021/12/30 14:30:50;;;;;;;0.00;0.00;;;;;;;;;;6270697;22;20075;-69
2021/12/30 14:33:17;;;;;;;0.00;0.00;;;;;;;;;;6270764;22;20004;-69
2021/12/30 14:35:42;;;;;;;0.00;0.00;;;;;;;;;;6270863;22;19996;-69
2021/12/30 14:38:07;;;;;;;0.40;0.40;;;;;;;;;;6270558;22;20027;-68
2021/12/30 14:40:33;;;;;;;0.00;0.00;;;;;;;;;;6271265;22;19995;-68
2021/12/30 14:43:03;;;;;;;0.00;0.00;;;;;;;;;;6270788;22;20410;-68